EIN5697 EIDW-EGCC
Flight info
| Callsign | EIN5697 |
|---|---|
| Flight time | 0h 37m |
| Altitude | 19000 |
| Route | BOFUM1E BOFUM Q37 MALUD |
| Aircraft | A333/H-SDE3GHIJ2J3J5M1RVWXY/LB2D1 |
Departure
| Time | 2026-05-04 15:32 |
|---|---|
| Airport | Dublin Airport (EIDW) |
Arrival
| Time | 2026-05-04 16:09 |
|---|---|
| Airport | Manchester Airport (EGCC) |
| Time | Latitude | Longitude | Altitude | Speed | Heading |
|---|---|---|---|---|---|
| 2026-05-04 15:05 | 53.42316 | -6.24248 | 209 ft | 0 kts | 315° |
| 2026-05-04 15:16 | 53.42315 | -6.24248 | 209 ft | 0 kts | 315° |
| 2026-05-04 15:18 | 53.42310 | -6.24239 | 209 ft | 2 kts | 315° |
| 2026-05-04 15:18 | 53.42300 | -6.24221 | 208 ft | 1 kts | 315° |
| 2026-05-04 15:18 | 53.42293 | -6.24210 | 208 ft | 2 kts | 309° |
| 2026-05-04 15:19 | 53.42287 | -6.24165 | 208 ft | 2 kts | 251° |
| 2026-05-04 15:19 | 53.42294 | -6.24145 | 208 ft | 0 kts | 228° |
| 2026-05-04 15:19 | 53.42297 | -6.24139 | 208 ft | 0 kts | 226° |
| 2026-05-04 15:23 | 53.42276 | -6.24175 | 207 ft | 14 kts | 226° |
| 2026-05-04 15:23 | 53.42197 | -6.24393 | 203 ft | 32 kts | 263° |
| 2026-05-04 15:23 | 53.42202 | -6.24708 | 204 ft | 18 kts | 285° |
| 2026-05-04 15:24 | 53.42366 | -6.24866 | 207 ft | 12 kts | 338° |
| 2026-05-04 15:24 | 53.42509 | -6.24970 | 210 ft | 8 kts | 336° |
| 2026-05-04 15:25 | 53.42549 | -6.25000 | 210 ft | 0 kts | 336° |
| 2026-05-04 15:26 | 53.42594 | -6.25033 | 211 ft | 10 kts | 337° |
| 2026-05-04 15:27 | 53.42680 | -6.25098 | 213 ft | 17 kts | 329° |
| 2026-05-04 15:27 | 53.42683 | -6.25448 | 213 ft | 20 kts | 222° |
| 2026-05-04 15:28 | 53.42486 | -6.25786 | 216 ft | 26 kts | 225° |
| 2026-05-04 15:28 | 53.42329 | -6.26047 | 219 ft | 36 kts | 226° |
| 2026-05-04 15:28 | 53.42291 | -6.26709 | 229 ft | 24 kts | 276° |
| 2026-05-04 15:29 | 53.42306 | -6.26949 | 232 ft | 18 kts | 275° |
| 2026-05-04 15:30 | 53.42353 | -6.27865 | 239 ft | 30 kts | 275° |
| 2026-05-04 15:30 | 53.42399 | -6.28649 | 246 ft | 15 kts | 275° |
| 2026-05-04 15:31 | 53.42403 | -6.29007 | 253 ft | 17 kts | 245° |
| 2026-05-04 15:31 | 53.42296 | -6.29067 | 253 ft | 20 kts | 171° |
| 2026-05-04 15:32 | 53.42131 | -6.26963 | 233 ft | 170 kts | 95° |
| 2026-05-04 15:32 | 53.41942 | -6.22701 | 1824 ft | 206 kts | 95° |
| 2026-05-04 15:33 | 53.41590 | -6.17721 | 4192 ft | 238 kts | 93° |
| 2026-05-04 15:34 | 53.41125 | -6.08998 | 6182 ft | 277 kts | 94° |
| 2026-05-04 15:34 | 53.40966 | -6.05988 | 7063 ft | 279 kts | 94° |
| 2026-05-04 15:34 | 53.41404 | -5.99766 | 8811 ft | 281 kts | 58° |
| 2026-05-04 15:35 | 53.43107 | -5.94138 | 9630 ft | 284 kts | 66° |
| 2026-05-04 15:35 | 53.43854 | -5.91118 | 10185 ft | 286 kts | 67° |
| 2026-05-04 15:35 | 53.44588 | -5.88061 | 10694 ft | 302 kts | 67° |
| 2026-05-04 15:36 | 53.46171 | -5.81416 | 11738 ft | 333 kts | 67° |
| 2026-05-04 15:36 | 53.46986 | -5.78054 | 12208 ft | 334 kts | 67° |
| 2026-05-04 15:36 | 53.47733 | -5.74961 | 12643 ft | 331 kts | 67° |
| 2026-05-04 15:37 | 53.48624 | -5.71268 | 13157 ft | 327 kts | 67° |
| 2026-05-04 15:37 | 53.49460 | -5.67795 | 13642 ft | 324 kts | 67° |
| 2026-05-04 15:37 | 53.50022 | -5.65459 | 13970 ft | 324 kts | 67° |
| 2026-05-04 15:37 | 53.50781 | -5.62299 | 14426 ft | 323 kts | 67° |
| 2026-05-04 15:38 | 53.51598 | -5.58888 | 14909 ft | 321 kts | 67° |
| 2026-05-04 15:38 | 53.52389 | -5.55588 | 15384 ft | 321 kts | 66° |
| 2026-05-04 15:38 | 53.53204 | -5.52169 | 15871 ft | 320 kts | 67° |
| 2026-05-04 15:38 | 53.53659 | -5.48462 | 16357 ft | 324 kts | 88° |
| 2026-05-04 15:39 | 53.53448 | -5.44915 | 16857 ft | 334 kts | 94° |
| 2026-05-04 15:39 | 53.53210 | -5.40968 | 17382 ft | 345 kts | 93° |
| 2026-05-04 15:39 | 53.52742 | -5.33125 | 18352 ft | 351 kts | 94° |
| 2026-05-04 15:40 | 53.52503 | -5.29081 | 18848 ft | 345 kts | 94° |
| 2026-05-04 15:40 | 53.52268 | -5.25136 | 19081 ft | 345 kts | 94° |
| 2026-05-04 15:40 | 53.52028 | -5.21123 | 19042 ft | 341 kts | 94° |
| 2026-05-04 15:40 | 53.51789 | -5.17138 | 19056 ft | 340 kts | 94° |
| 2026-05-04 15:41 | 53.51553 | -5.13222 | 19070 ft | 339 kts | 94° |
| 2026-05-04 15:41 | 53.51313 | -5.09267 | 19062 ft | 340 kts | 94° |
| 2026-05-04 15:41 | 53.51072 | -5.05324 | 19059 ft | 339 kts | 94° |
| 2026-05-04 15:41 | 53.50832 | -5.01405 | 19058 ft | 338 kts | 94° |
| 2026-05-04 15:42 | 53.50590 | -4.97484 | 19055 ft | 338 kts | 94° |
| 2026-05-04 15:42 | 53.50348 | -4.93586 | 19058 ft | 339 kts | 94° |
| 2026-05-04 15:42 | 53.50101 | -4.89619 | 19054 ft | 338 kts | 94° |
| 2026-05-04 15:42 | 53.49856 | -4.85715 | 19048 ft | 339 kts | 94° |
| 2026-05-04 15:43 | 53.49606 | -4.81753 | 19055 ft | 339 kts | 94° |
| 2026-05-04 15:43 | 53.49358 | -4.77833 | 19044 ft | 338 kts | 94° |
| 2026-05-04 15:43 | 53.49108 | -4.73927 | 19040 ft | 338 kts | 94° |
| 2026-05-04 15:43 | 53.48857 | -4.69989 | 19043 ft | 339 kts | 94° |
| 2026-05-04 15:44 | 53.48605 | -4.66094 | 19045 ft | 340 kts | 94° |
| 2026-05-04 15:44 | 53.48352 | -4.62168 | 19041 ft | 339 kts | 94° |
| 2026-05-04 15:44 | 53.48093 | -4.58193 | 19050 ft | 340 kts | 94° |
| 2026-05-04 15:44 | 53.47836 | -4.54269 | 19033 ft | 339 kts | 94° |
| 2026-05-04 15:45 | 53.47581 | -4.50378 | 19041 ft | 339 kts | 94° |
| 2026-05-04 15:45 | 53.47321 | -4.46449 | 19046 ft | 340 kts | 94° |
| 2026-05-04 15:45 | 53.47057 | -4.42477 | 19040 ft | 339 kts | 94° |
| 2026-05-04 15:45 | 53.46795 | -4.38550 | 19034 ft | 339 kts | 94° |
| 2026-05-04 15:46 | 53.46533 | -4.34649 | 19049 ft | 340 kts | 95° |
| 2026-05-04 15:46 | 53.46267 | -4.30695 | 19045 ft | 340 kts | 95° |
| 2026-05-04 15:46 | 53.46002 | -4.26780 | 19036 ft | 340 kts | 95° |
| 2026-05-04 15:46 | 53.45732 | -4.22825 | 19047 ft | 340 kts | 95° |
| 2026-05-04 15:47 | 53.45470 | -4.18994 | 19036 ft | 340 kts | 95° |
| 2026-05-04 15:47 | 53.45222 | -4.15391 | 19043 ft | 339 kts | 95° |
| 2026-05-04 15:47 | 53.44941 | -4.11298 | 19031 ft | 339 kts | 95° |
| 2026-05-04 15:47 | 53.44674 | -4.07460 | 19031 ft | 339 kts | 95° |
| 2026-05-04 15:48 | 53.44456 | -4.04336 | 19039 ft | 338 kts | 95° |
| 2026-05-04 15:48 | 53.44162 | -4.00132 | 19040 ft | 339 kts | 95° |
| 2026-05-04 15:48 | 53.43572 | -3.91765 | 19038 ft | 340 kts | 95° |
| 2026-05-04 15:49 | 53.43051 | -3.84465 | 18505 ft | 348 kts | 96° |
| 2026-05-04 15:49 | 53.42764 | -3.80458 | 17990 ft | 346 kts | 95° |
| 2026-05-04 15:49 | 53.42477 | -3.76473 | 17481 ft | 344 kts | 96° |
| 2026-05-04 15:50 | 53.42223 | -3.72959 | 17036 ft | 344 kts | 96° |
| 2026-05-04 15:50 | 53.41920 | -3.68802 | 16515 ft | 346 kts | 96° |
| 2026-05-04 15:50 | 53.41625 | -3.64766 | 16014 ft | 346 kts | 96° |
| 2026-05-04 15:50 | 53.41358 | -3.61121 | 15555 ft | 348 kts | 96° |
| 2026-05-04 15:51 | 53.41181 | -3.57716 | 15121 ft | 345 kts | 92° |
| 2026-05-04 15:51 | 53.41038 | -3.54248 | 14686 ft | 343 kts | 94° |
| 2026-05-04 15:51 | 53.41099 | -3.50068 | 14128 ft | 340 kts | 81° |
| 2026-05-04 15:51 | 53.41613 | -3.45517 | 13562 ft | 338 kts | 76° |
| 2026-05-04 15:52 | 53.42171 | -3.41672 | 13061 ft | 336 kts | 74° |
| 2026-05-04 15:52 | 53.42761 | -3.37945 | 12563 ft | 335 kts | 73° |
| 2026-05-04 15:52 | 53.43354 | -3.34322 | 12074 ft | 333 kts | 74° |
| 2026-05-04 15:52 | 53.43858 | -3.31283 | 11662 ft | 332 kts | 74° |
| 2026-05-04 15:53 | 53.44989 | -3.24520 | 10752 ft | 330 kts | 74° |
| 2026-05-04 15:53 | 53.45707 | -3.20223 | 10125 ft | 328 kts | 73° |
| 2026-05-04 15:53 | 53.46275 | -3.16824 | 9684 ft | 327 kts | 73° |
| 2026-05-04 15:54 | 53.46904 | -3.13052 | 9172 ft | 325 kts | 73° |
| 2026-05-04 15:54 | 53.47501 | -3.09463 | 8639 ft | 321 kts | 73° |
| 2026-05-04 15:54 | 53.48058 | -3.06111 | 8157 ft | 314 kts | 73° |
| 2026-05-04 15:54 | 53.48637 | -3.02615 | 7931 ft | 304 kts | 73° |
| 2026-05-04 15:55 | 53.49160 | -2.99449 | 7977 ft | 287 kts | 73° |
| 2026-05-04 15:55 | 53.49688 | -2.96258 | 7941 ft | 275 kts | 73° |
| 2026-05-04 15:55 | 53.50179 | -2.93281 | 7948 ft | 271 kts | 73° |
| 2026-05-04 15:55 | 53.50666 | -2.90320 | 7962 ft | 271 kts | 73° |
| 2026-05-04 15:56 | 53.51158 | -2.87329 | 7963 ft | 272 kts | 73° |
| 2026-05-04 15:56 | 53.51645 | -2.84336 | 7952 ft | 266 kts | 75° |
| 2026-05-04 15:56 | 53.51963 | -2.81578 | 7947 ft | 255 kts | 79° |
| 2026-05-04 15:56 | 53.52261 | -2.78554 | 7958 ft | 250 kts | 79° |
| 2026-05-04 15:57 | 53.52542 | -2.75704 | 7961 ft | 250 kts | 79° |
| 2026-05-04 15:57 | 53.52820 | -2.72892 | 7948 ft | 251 kts | 79° |
| 2026-05-04 15:57 | 53.53095 | -2.70090 | 7957 ft | 250 kts | 79° |
| 2026-05-04 15:57 | 53.53359 | -2.67395 | 7946 ft | 252 kts | 79° |
| 2026-05-04 15:58 | 53.53656 | -2.64406 | 7671 ft | 254 kts | 79° |
| 2026-05-04 15:58 | 53.53941 | -2.61532 | 7430 ft | 253 kts | 79° |
| 2026-05-04 15:58 | 53.54229 | -2.58636 | 7180 ft | 252 kts | 79° |
| 2026-05-04 15:58 | 53.54510 | -2.55812 | 6935 ft | 251 kts | 79° |
| 2026-05-04 15:59 | 53.54788 | -2.53028 | 6693 ft | 250 kts | 79° |
| 2026-05-04 15:59 | 53.55065 | -2.50255 | 6452 ft | 250 kts | 79° |
| 2026-05-04 15:59 | 53.55357 | -2.47345 | 6199 ft | 249 kts | 79° |
| 2026-05-04 15:59 | 53.55630 | -2.44602 | 5979 ft | 248 kts | 79° |
| 2026-05-04 16:00 | 53.55911 | -2.41740 | 5934 ft | 242 kts | 79° |
| 2026-05-04 16:00 | 53.56177 | -2.39030 | 5947 ft | 242 kts | 79° |
| 2026-05-04 16:00 | 53.56444 | -2.36300 | 5941 ft | 242 kts | 80° |
| 2026-05-04 16:00 | 53.56475 | -2.33916 | 5946 ft | 244 kts | 99° |
| 2026-05-04 16:01 | 53.56076 | -2.31188 | 5984 ft | 245 kts | 105° |
| 2026-05-04 16:01 | 53.55626 | -2.28403 | 5961 ft | 244 kts | 105° |
| 2026-05-04 16:01 | 53.55178 | -2.25625 | 5967 ft | 243 kts | 105° |
| 2026-05-04 16:01 | 53.54747 | -2.22946 | 5994 ft | 244 kts | 105° |
| 2026-05-04 16:02 | 53.54309 | -2.20216 | 5809 ft | 248 kts | 105° |
| 2026-05-04 16:02 | 53.53873 | -2.17504 | 5416 ft | 255 kts | 105° |
| 2026-05-04 16:02 | 53.52957 | -2.11847 | 4476 ft | 270 kts | 105° |
| 2026-05-04 16:03 | 53.52458 | -2.08811 | 3888 ft | 268 kts | 105° |
| 2026-05-04 16:03 | 53.51971 | -2.05864 | 3365 ft | 260 kts | 105° |
| 2026-05-04 16:03 | 53.51508 | -2.03091 | 2964 ft | 248 kts | 105° |
| 2026-05-04 16:03 | 53.50788 | -2.00688 | 2974 ft | 226 kts | 134° |
| 2026-05-04 16:04 | 53.49560 | -1.99411 | 2973 ft | 209 kts | 169° |
| 2026-05-04 16:04 | 53.47179 | -2.00335 | 3027 ft | 161 kts | 226° |
| 2026-05-04 16:04 | 53.46689 | -2.01921 | 3040 ft | 159 kts | 257° |
| 2026-05-04 16:05 | 53.46324 | -2.03617 | 3000 ft | 158 kts | 247° |
| 2026-05-04 16:05 | 53.45804 | -2.05236 | 2984 ft | 162 kts | 241° |
| 2026-05-04 16:05 | 53.44526 | -2.08373 | 2940 ft | 172 kts | 236° |
| 2026-05-04 16:06 | 53.43838 | -2.09885 | 2658 ft | 166 kts | 234° |
| 2026-05-04 16:06 | 53.41786 | -2.14217 | 2064 ft | 165 kts | 233° |
| 2026-05-04 16:07 | 53.41078 | -2.15685 | 1844 ft | 153 kts | 233° |
| 2026-05-04 16:07 | 53.39212 | -2.19563 | 1249 ft | 142 kts | 233° |
| 2026-05-04 16:08 | 53.38607 | -2.20815 | 1055 ft | 134 kts | 233° |
| 2026-05-04 16:08 | 53.36935 | -2.24267 | 547 ft | 127 kts | 230° |
| 2026-05-04 16:09 | 53.35843 | -2.26521 | 284 ft | 130 kts | 232° |
| 2026-05-04 16:09 | 53.35156 | -2.27948 | 241 ft | 4 kts | 231° |
| 2026-05-04 16:10 | 53.35137 | -2.28193 | 239 ft | 19 kts | 344° |
| 2026-05-04 16:11 | 53.35182 | -2.28200 | 239 ft | 0 kts | 1° |
| 2026-05-04 16:12 | 53.35315 | -2.28149 | 240 ft | 12 kts | 38° |
| 2026-05-04 16:12 | 53.35338 | -2.28115 | 241 ft | 0 kts | 43° |